createdAt,value
2023-04-26T00:00:11.347Z,95.3475
2023-04-26T00:01:12.042Z,95.3124
2023-04-26T00:02:12.797Z,95.3735
2023-04-26T00:03:13.628Z,95.3865
2023-04-26T00:04:14.817Z,95.2578
2023-04-26T00:05:15.742Z,95.1304
2023-04-26T00:06:16.455Z,95.2903
2023-04-26T00:07:17.138Z,95.2814
2023-04-26T00:08:17.776Z,95.2420
2023-04-26T00:09:18.505Z,95.1501
2023-04-26T00:10:19.171Z,95.1535
2023-04-26T00:11:19.835Z,95.1295
2023-04-26T00:12:20.542Z,95.2302
2023-04-26T00:13:21.260Z,95.3212
2023-04-26T00:14:21.900Z,95.2710
2023-04-26T00:15:22.584Z,95.3654
2023-04-26T00:16:23.255Z,95.4910
2023-04-26T00:17:23.896Z,95.5128
2023-04-26T00:18:24.516Z,95.6343
2023-04-26T00:19:25.159Z,95.5435
2023-04-26T00:20:25.787Z,95.5206
2023-04-26T00:21:26.439Z,95.6533
2023-04-26T00:22:27.052Z,95.7158
2023-04-26T00:23:27.730Z,95.8270
2023-04-26T00:24:28.468Z,95.9933
2023-04-26T00:25:29.130Z,95.8716
2023-04-26T00:26:29.773Z,95.6754
2023-04-26T00:27:30.430Z,95.6227
2023-04-26T00:28:31.045Z,95.7253
2023-04-26T00:29:31.748Z,95.8135
2023-04-26T00:30:32.445Z,95.6299
2023-04-26T00:31:33.107Z,95.5315
2023-04-26T00:32:33.751Z,95.5217
2023-04-26T00:33:34.475Z,95.5324
2023-04-26T00:34:35.167Z,95.5530
2023-04-26T00:35:35.834Z,95.6876
2023-04-26T00:36:36.608Z,95.6946
2023-04-26T00:37:37.336Z,95.7526
2023-04-26T00:38:37.960Z,95.7968
2023-04-26T00:39:38.700Z,95.8902
2023-04-26T00:40:39.374Z,96.0206
2023-04-26T00:41:40.084Z,95.8723
2023-04-26T00:42:40.741Z,95.6788
2023-04-26T00:43:41.426Z,95.3830
2023-04-26T00:44:42.110Z,95.3176
2023-04-26T00:45:42.839Z,95.3070
2023-04-26T00:46:43.471Z,95.2965
2023-04-26T00:47:44.162Z,95.1999
2023-04-26T00:48:44.790Z,95.0899
2023-04-26T00:49:45.483Z,95.0499
2023-04-26T00:50:46.159Z,94.9910
2023-04-26T00:51:46.829Z,95.1890
2023-04-26T00:52:47.558Z,95.0155
2023-04-26T00:53:48.210Z,94.8198
2023-04-26T00:54:48.939Z,94.6546
2023-04-26T00:55:49.661Z,94.5448
2023-04-26T00:56:50.348Z,94.4842
2023-04-26T00:57:51.000Z,94.2630
2023-04-26T00:58:51.870Z,94.3269
2023-04-26T00:59:52.828Z,94.2315
2023-04-26T01:00:53.811Z,94.2186
2023-04-26T01:01:54.530Z,94.3906
2023-04-26T01:02:55.314Z,94.4750
2023-04-26T01:03:56.131Z,94.4314
2023-04-26T01:04:57.037Z,94.3906
2023-04-26T01:05:57.688Z,94.4943
2023-04-26T01:06:58.390Z,94.3970
2023-04-26T01:07:59.102Z,94.4844
2023-04-26T01:08:59.773Z,94.3995
2023-04-26T01:10:00.464Z,94.4026
2023-04-26T01:11:01.157Z,94.5215
2023-04-26T01:12:01.867Z,94.5208
2023-04-26T01:13:02.582Z,94.5922
2023-04-26T01:14:03.257Z,94.6446
2023-04-26T01:15:03.978Z,94.6939
2023-04-26T01:16:04.694Z,94.8717
2023-04-26T01:17:05.340Z,94.7895
2023-04-26T01:18:06.093Z,94.6795
2023-04-26T01:19:06.735Z,94.7059
2023-04-26T01:20:07.422Z,94.9955
2023-04-26T01:21:08.126Z,95.0414
2023-04-26T01:22:08.873Z,95.2243
2023-04-26T01:23:09.535Z,95.4453
2023-04-26T01:24:10.209Z,95.5125
2023-04-26T01:25:10.898Z,95.7414
2023-04-26T01:26:11.595Z,95.8286
2023-04-26T01:27:12.230Z,95.7941
2023-04-26T01:28:12.878Z,95.9292
2023-04-26T01:29:13.598Z,95.9194
2023-04-26T01:30:14.361Z,95.9052
2023-04-26T01:31:15.030Z,96.0261
2023-04-26T01:32:15.734Z,96.1154
2023-04-26T01:33:16.472Z,96.1415
2023-04-26T01:34:17.192Z,96.1730
2023-04-26T01:35:17.916Z,96.1619
2023-04-26T01:36:18.565Z,96.2111
2023-04-26T01:37:19.231Z,96.2354
2023-04-26T01:38:19.963Z,96.2781
2023-04-26T01:39:20.603Z,96.2979
2023-04-26T01:40:21.358Z,96.4452
2023-04-26T01:41:21.984Z,96.3244
2023-04-26T01:42:22.689Z,96.2245
2023-04-26T01:43:23.388Z,96.1832
2023-04-26T01:44:24.053Z,96.2011
2023-04-26T01:45:24.739Z,96.2189
2023-04-26T01:46:25.442Z,96.0986
2023-04-26T01:47:26.121Z,96.1085
2023-04-26T01:48:26.784Z,96.1878
2023-04-26T01:49:27.455Z,96.1866
2023-04-26T01:50:28.122Z,96.1420
2023-04-26T01:51:28.962Z,95.9899
2023-04-26T01:52:29.784Z,96.0600
2023-04-26T01:53:30.531Z,96.1537
2023-04-26T01:54:31.189Z,96.2101
2023-04-26T01:55:31.855Z,96.1585
2023-04-26T01:56:32.666Z,96.0847
2023-04-26T01:57:33.407Z,95.9761
2023-04-26T01:58:34.100Z,96.0518
2023-04-26T01:59:34.737Z,96.0806
2023-04-26T02:00:35.454Z,95.8450
2023-04-26T02:01:36.118Z,95.7325
2023-04-26T02:02:36.945Z,95.8175
2023-04-26T02:03:37.844Z,95.9499
2023-04-26T02:04:38.565Z,96.0555
2023-04-26T02:05:39.194Z,96.0837
2023-04-26T02:06:39.896Z,96.1505
2023-04-26T02:07:40.609Z,96.1590
2023-04-26T02:08:41.247Z,96.2030
2023-04-26T02:09:41.943Z,96.1775
2023-04-26T02:10:42.659Z,96.3288
2023-04-26T02:11:43.358Z,96.5363
2023-04-26T02:12:44.066Z,96.6143
2023-04-26T02:13:44.711Z,96.7241
2023-04-26T02:14:45.361Z,96.8143
2023-04-26T02:15:46.127Z,96.8587
2023-04-26T02:16:46.881Z,96.8876
2023-04-26T02:17:47.547Z,96.9265
2023-04-26T02:18:48.289Z,96.9420
2023-04-26T02:19:48.939Z,96.9368
2023-04-26T02:20:49.650Z,96.8663
2023-04-26T02:21:50.337Z,96.8919
2023-04-26T02:22:50.998Z,96.8111
2023-04-26T02:23:51.629Z,96.7896
2023-04-26T02:24:52.319Z,96.7313
2023-04-26T02:25:52.987Z,96.6208
2023-04-26T02:26:53.682Z,96.4961
2023-04-26T02:27:54.357Z,96.5433
2023-04-26T02:28:55.159Z,96.6033
2023-04-26T02:29:55.846Z,96.5949
2023-04-26T02:30:56.556Z,96.6114
2023-04-26T02:31:57.377Z,96.5866
2023-04-26T02:32:58.092Z,96.5046
2023-04-26T02:33:58.778Z,96.6637
2023-04-26T02:34:59.527Z,96.9458
2023-04-26T02:36:00.186Z,97.0608
2023-04-26T02:37:00.912Z,97.0459
2023-04-26T02:38:01.632Z,97.0713
2023-04-26T02:39:02.325Z,97.0354
2023-04-26T02:40:03.054Z,96.9837
2023-04-26T02:41:03.940Z,97.0444
2023-04-26T02:42:04.708Z,97.0547
2023-04-26T02:43:05.385Z,97.0181
2023-04-26T02:44:06.091Z,97.0920
2023-04-26T02:45:06.854Z,97.0405
2023-04-26T02:46:07.563Z,97.0563
2023-04-26T02:47:08.321Z,97.1471
2023-04-26T02:48:09.083Z,97.1482
2023-04-26T02:49:09.750Z,97.1988
2023-04-26T02:50:10.420Z,97.1368
2023-04-26T02:51:11.104Z,97.0239
2023-04-26T02:52:11.814Z,96.6063
2023-04-26T02:53:12.514Z,96.4483
2023-04-26T02:54:13.252Z,96.5940
2023-04-26T02:55:13.928Z,96.5852
2023-04-26T02:56:14.620Z,96.4732
2023-04-26T02:57:15.287Z,96.4655
2023-04-26T02:58:16.000Z,96.5126
2023-04-26T02:59:16.673Z,96.6152
2023-04-26T03:00:17.399Z,96.7218
2023-04-26T03:01:18.159Z,96.6755
2023-04-26T03:02:18.970Z,96.7552
2023-04-26T03:03:19.910Z,96.9218
2023-04-26T03:04:21.030Z,97.0332
2023-04-26T03:05:21.705Z,97.1999
2023-04-26T03:06:22.428Z,97.2634
2023-04-26T03:07:23.138Z,97.2515
2023-04-26T03:08:23.988Z,97.2486
2023-04-26T03:09:24.606Z,97.2540
2023-04-26T03:10:25.285Z,97.2335
2023-04-26T03:11:26.011Z,97.2037
2023-04-26T03:12:26.123Z,97.1842
2023-04-26T03:13:26.852Z,97.2367
2023-04-26T03:14:27.528Z,97.2436
2023-04-26T03:15:28.216Z,97.2464
2023-04-26T03:16:28.969Z,97.2549
2023-04-26T03:17:29.625Z,97.2922
2023-04-26T03:18:30.363Z,97.3478
2023-04-26T03:19:31.020Z,97.3917
2023-04-26T03:20:31.685Z,97.4004
2023-04-26T03:21:32.357Z,97.3381
2023-04-26T03:22:33.036Z,97.2451
2023-04-26T03:23:33.760Z,97.1921
2023-04-26T03:24:34.448Z,97.2012
2023-04-26T03:25:35.154Z,97.2343
2023-04-26T03:26:35.838Z,97.2257
2023-04-26T03:27:36.506Z,97.2018
2023-04-26T03:28:37.203Z,97.1611
2023-04-26T03:29:37.920Z,97.0380
2023-04-26T03:30:38.621Z,96.9875
2023-04-26T03:31:39.461Z,96.9714
2023-04-26T03:32:40.185Z,96.9693
2023-04-26T03:33:40.787Z,96.9445
2023-04-26T03:34:41.490Z,96.9347
2023-04-26T03:35:42.192Z,96.9408
2023-04-26T03:36:42.927Z,96.9161
2023-04-26T03:37:43.575Z,96.9669
2023-04-26T03:38:44.247Z,96.9617
2023-04-26T03:39:44.952Z,96.9596
2023-04-26T03:40:45.684Z,96.8215
2023-04-26T03:41:46.367Z,96.7981
2023-04-26T03:42:47.122Z,96.7889
2023-04-26T03:43:47.767Z,96.8555
2023-04-26T03:44:48.466Z,96.9352
2023-04-26T03:45:49.148Z,96.9830
2023-04-26T03:46:49.902Z,97.0593
2023-04-26T03:47:50.693Z,97.0284
2023-04-26T03:48:51.703Z,97.0375
2023-04-26T03:49:52.808Z,97.0898
2023-04-26T03:50:53.505Z,97.1459
2023-04-26T03:51:54.181Z,97.1517
2023-04-26T03:52:54.882Z,97.1214
2023-04-26T03:53:55.593Z,97.1620
2023-04-26T03:54:56.264Z,97.1178
2023-04-26T03:55:56.936Z,97.1294
2023-04-26T03:56:57.619Z,97.1886
2023-04-26T03:57:58.534Z,97.2439
2023-04-26T03:58:59.173Z,97.3311
2023-04-26T03:59:59.934Z,97.3472
2023-04-26T04:01:00.571Z,97.3770
2023-04-26T04:02:01.267Z,97.4585
2023-04-26T04:03:02.016Z,97.5787
2023-04-26T04:04:02.935Z,97.6331
2023-04-26T04:05:03.853Z,97.6294
2023-04-26T04:06:04.620Z,97.6582
2023-04-26T04:07:05.308Z,97.7229
2023-04-26T04:08:06.017Z,97.8272
2023-04-26T04:09:06.728Z,97.8610
2023-04-26T04:10:07.401Z,97.9176
2023-04-26T04:11:08.137Z,97.9213
2023-04-26T04:12:08.834Z,97.9177
2023-04-26T04:13:09.547Z,97.9555
2023-04-26T04:14:10.302Z,97.9795
2023-04-26T04:15:10.998Z,97.9983
2023-04-26T04:16:11.756Z,97.9358
2023-04-26T04:17:12.428Z,97.9060
2023-04-26T04:18:13.177Z,97.8875
2023-04-26T04:19:13.888Z,97.9382
2023-04-26T04:20:14.622Z,97.9189
2023-04-26T04:21:15.347Z,97.9014
2023-04-26T04:22:16.071Z,97.8757
2023-04-26T04:23:16.787Z,97.8174
2023-04-26T04:24:17.429Z,97.8232
2023-04-26T04:25:18.108Z,97.9192
2023-04-26T04:26:18.754Z,97.9159
2023-04-26T04:27:19.523Z,97.9156
2023-04-26T04:28:20.174Z,97.9216
2023-04-26T04:29:20.875Z,97.8909
2023-04-26T04:30:21.584Z,97.8892
2023-04-26T04:31:22.363Z,97.9053
2023-04-26T04:32:23.181Z,97.9218
2023-04-26T04:33:23.878Z,97.8222
2023-04-26T04:34:24.575Z,97.7854
2023-04-26T04:35:25.251Z,97.6623
2023-04-26T04:36:25.924Z,97.6009
2023-04-26T04:37:26.615Z,97.4972
2023-04-26T04:38:27.315Z,97.4160
2023-04-26T04:39:27.953Z,97.3656
2023-04-26T04:40:28.663Z,97.3221
2023-04-26T04:41:29.404Z,97.3315
2023-04-26T04:42:30.087Z,97.3318
2023-04-26T04:43:31.087Z,97.2736
2023-04-26T04:44:31.885Z,97.2239
2023-04-26T04:45:32.574Z,97.1887
2023-04-26T04:46:33.312Z,97.1454
2023-04-26T04:47:34.247Z,97.0549
2023-04-26T04:48:34.995Z,96.9650
2023-04-26T04:49:35.710Z,96.8630
2023-04-26T04:50:36.394Z,96.7849
2023-04-26T04:51:37.122Z,96.6842
2023-04-26T04:52:37.923Z,96.4953
2023-04-26T04:53:38.638Z,96.3759
2023-04-26T04:54:39.250Z,96.3441
2023-04-26T04:55:39.980Z,96.3835
2023-04-26T04:56:40.622Z,96.4235
2023-04-26T04:57:43.117Z,96.4550
2023-04-26T04:58:43.948Z,96.5389
2023-04-26T04:59:44.737Z,96.6274
2023-04-26T05:00:45.412Z,96.6558
2023-04-26T05:01:46.134Z,96.5159
2023-04-26T05:02:46.951Z,96.4569
2023-04-26T05:03:47.776Z,96.4529
2023-04-26T05:04:48.541Z,96.5507
2023-04-26T05:05:49.294Z,96.5193
2023-04-26T05:06:50.039Z,96.4339
2023-04-26T05:07:50.900Z,96.3244
2023-04-26T05:08:51.628Z,96.2103
2023-04-26T05:09:52.325Z,96.2654
2023-04-26T05:10:52.958Z,96.2864
2023-04-26T05:11:53.620Z,96.2358
2023-04-26T05:12:54.340Z,96.1428
2023-04-26T05:13:55.592Z,96.1486
2023-04-26T05:14:56.699Z,96.0318
2023-04-26T05:15:57.503Z,95.7983
2023-04-26T05:16:58.205Z,95.6494
2023-04-26T05:17:58.966Z,95.6621
2023-04-26T05:18:59.670Z,95.6199
2023-04-26T05:20:00.494Z,95.4905
2023-04-26T05:21:01.201Z,95.4722
2023-04-26T05:22:01.907Z,95.5634
2023-04-26T05:23:02.626Z,95.5820
2023-04-26T05:24:03.363Z,95.6333
2023-04-26T05:25:04.064Z,95.6370
2023-04-26T05:26:04.747Z,95.6243
2023-04-26T05:27:05.443Z,95.7053
2023-04-26T05:28:06.144Z,95.7124
2023-04-26T05:29:06.811Z,95.5788
2023-04-26T05:30:07.454Z,95.4482
2023-04-26T05:31:10.632Z,95.6177
2023-04-26T05:32:09.354Z,95.6063
2023-04-26T05:33:10.073Z,95.4633
2023-04-26T05:34:10.743Z,95.4377
2023-04-26T05:35:11.397Z,95.3217
2023-04-26T05:36:12.083Z,95.3289
2023-04-26T05:37:12.742Z,95.4291
2023-04-26T05:38:13.485Z,95.3873
2023-04-26T05:39:14.157Z,95.2617
2023-04-26T05:40:14.837Z,95.2383
2023-04-26T05:41:15.570Z,95.0805
2023-04-26T05:42:17.855Z,95.0014
2023-04-26T05:43:19.136Z,94.8971
2023-04-26T05:44:19.928Z,94.6663
2023-04-26T05:45:20.626Z,94.4891
2023-04-26T05:46:21.607Z,94.5174
2023-04-26T05:47:22.613Z,94.7797
2023-04-26T05:48:23.331Z,94.8447
2023-04-26T05:49:24.017Z,94.6298
2023-04-26T05:50:24.749Z,94.4225
2023-04-26T05:51:25.456Z,94.2632
2023-04-26T05:52:26.179Z,94.0593
2023-04-26T05:53:26.923Z,93.8764
2023-04-26T05:54:27.628Z,93.8112
2023-04-26T05:55:28.367Z,93.8729
2023-04-26T05:56:29.121Z,93.5698
2023-04-26T05:57:29.943Z,93.7702
2023-04-26T05:58:30.662Z,93.9155
2023-04-26T05:59:31.376Z,93.6200
2023-04-26T06:00:32.108Z,93.5395
2023-04-26T06:01:32.873Z,93.4424
2023-04-26T06:02:33.876Z,93.0583
2023-04-26T06:03:35.151Z,93.0503
2023-04-26T06:04:36.191Z,92.9171
2023-04-26T06:05:36.944Z,93.1916
2023-04-26T06:06:37.785Z,93.4400
2023-04-26T06:07:38.499Z,93.0814
2023-04-26T06:08:39.229Z,93.0896
2023-04-26T06:09:39.935Z,92.8312
2023-04-26T06:10:40.673Z,93.0124
2023-04-26T06:11:41.321Z,92.8000
2023-04-26T06:12:42.056Z,92.6673
2023-04-26T06:13:43.126Z,92.4821
2023-04-26T06:14:43.946Z,92.6479
2023-04-26T06:15:44.605Z,92.8058
2023-04-26T06:16:45.428Z,92.7532
2023-04-26T06:17:46.132Z,92.5457
2023-04-26T06:18:46.902Z,92.7497
2023-04-26T06:19:47.698Z,92.7623
2023-04-26T06:20:48.440Z,92.4740
2023-04-26T06:21:49.169Z,91.9633
2023-04-26T06:22:49.939Z,91.9762
2023-04-26T06:23:50.942Z,91.7577
2023-04-26T06:24:52.004Z,91.7943
2023-04-26T06:25:52.669Z,92.1376
2023-04-26T06:26:53.414Z,92.3207
2023-04-26T06:27:54.163Z,92.6008
2023-04-26T06:28:54.890Z,92.7846
2023-04-26T06:29:55.605Z,92.6443
2023-04-26T06:30:56.450Z,92.0299
2023-04-26T06:31:57.173Z,92.0435
2023-04-26T06:32:58.032Z,91.4099
2023-04-26T06:33:58.779Z,91.2177
2023-04-26T06:34:59.509Z,91.4758
2023-04-26T06:36:00.223Z,91.9243
2023-04-26T06:37:00.994Z,92.0523
2023-04-26T06:38:01.689Z,91.6677
2023-04-26T06:39:02.419Z,91.2609
2023-04-26T06:40:03.124Z,91.2759
2023-04-26T06:41:03.863Z,91.3231
2023-04-26T06:42:04.633Z,90.5206
2023-04-26T06:43:05.370Z,90.7580
2023-04-26T06:44:06.126Z,91.3930
2023-04-26T06:45:06.881Z,91.0835
2023-04-26T06:46:07.602Z,91.0405
2023-04-26T06:47:08.311Z,90.9719
2023-04-26T06:48:09.098Z,91.0964
2023-04-26T06:49:09.870Z,90.7172
2023-04-26T06:50:10.614Z,90.2502
2023-04-26T06:51:11.390Z,90.1707
2023-04-26T06:52:12.215Z,90.8367
2023-04-26T06:53:12.922Z,91.0189
2023-04-26T06:54:13.708Z,90.9462
2023-04-26T06:55:14.442Z,90.3598
2023-04-26T06:56:15.133Z,90.1169
2023-04-26T06:57:15.874Z,89.8798
2023-04-26T06:58:16.824Z,89.5667
2023-04-26T06:59:17.572Z,89.5301
2023-04-26T07:00:18.317Z,89.2155
2023-04-26T07:01:19.069Z,90.2182
2023-04-26T07:02:20.068Z,89.9923
2023-04-26T07:03:21.033Z,88.8273
2023-04-26T07:04:22.047Z,89.0719
2023-04-26T07:05:22.911Z,89.4248
2023-04-26T07:06:23.677Z,89.3734
2023-04-26T07:07:24.355Z,89.1721
2023-04-26T07:08:25.100Z,88.8162
2023-04-26T07:09:25.804Z,88.5694
2023-04-26T07:10:26.535Z,87.9961
2023-04-26T07:11:27.270Z,87.6938
2023-04-26T07:12:27.960Z,87.8934
2023-04-26T07:13:28.658Z,88.4119
2023-04-26T07:14:29.343Z,88.3117
2023-04-26T07:15:30.041Z,87.7557
2023-04-26T07:16:30.803Z,88.4588
2023-04-26T07:17:31.600Z,88.6368
2023-04-26T07:18:32.323Z,88.3941
2023-04-26T07:19:33.093Z,88.2114
2023-04-26T07:20:33.871Z,88.1505
2023-04-26T07:21:34.570Z,88.9476
2023-04-26T07:22:35.296Z,88.1590
2023-04-26T07:23:36.090Z,88.6736
2023-04-26T07:24:36.774Z,88.4195
2023-04-26T07:25:37.488Z,87.5964
2023-04-26T07:26:38.208Z,87.7801
2023-04-26T07:27:38.967Z,87.3470
2023-04-26T07:28:39.688Z,87.2200
2023-04-26T07:29:40.435Z,87.3831
2023-04-26T07:30:41.145Z,86.8205
2023-04-26T07:31:41.817Z,86.0773
2023-04-26T07:32:42.659Z,86.4949
2023-04-26T07:33:43.505Z,86.1350
2023-04-26T07:34:44.251Z,85.8080
2023-04-26T07:35:44.988Z,85.6523
2023-04-26T07:36:45.705Z,86.6177
2023-04-26T07:37:46.412Z,86.6940
2023-04-26T07:38:47.179Z,86.5189
2023-04-26T07:39:47.837Z,87.2866
2023-04-26T07:40:48.567Z,87.0812
2023-04-26T07:41:49.238Z,86.2648
2023-04-26T07:42:49.975Z,85.7734
2023-04-26T07:43:50.882Z,85.5596
2023-04-26T07:44:51.973Z,85.1985
2023-04-26T07:45:52.727Z,84.5161
2023-04-26T07:46:53.416Z,84.7976
2023-04-26T07:47:54.781Z,85.6829
2023-04-26T07:48:55.884Z,86.5936
2023-04-26T07:49:56.603Z,86.6626
2023-04-26T07:50:57.327Z,85.9161
2023-04-26T07:51:58.023Z,85.8554
2023-04-26T07:52:58.769Z,84.9984
2023-04-26T07:53:59.440Z,85.2804
2023-04-26T07:55:00.161Z,85.4398
2023-04-26T07:56:00.882Z,84.9974
2023-04-26T07:57:01.636Z,85.0344
2023-04-26T07:58:02.314Z,84.7770
2023-04-26T07:59:03.053Z,85.0567
2023-04-26T08:00:03.744Z,84.8664
2023-04-26T08:01:04.443Z,84.4486
2023-04-26T08:02:05.199Z,84.0297
2023-04-26T08:03:06.108Z,83.7760
2023-04-26T08:04:07.435Z,84.1712
2023-04-26T08:05:08.445Z,83.5318
2023-04-26T08:06:09.233Z,84.1109
2023-04-26T08:07:09.968Z,84.9074
2023-04-26T08:08:10.616Z,84.0919
2023-04-26T08:09:12.499Z,83.4927
2023-04-26T08:10:13.331Z,83.6045
2023-04-26T08:11:14.082Z,84.1239
2023-04-26T08:12:14.830Z,84.2765
2023-04-26T08:13:15.509Z,83.9717
2023-04-26T08:14:16.399Z,84.1359
2023-04-26T08:15:17.103Z,83.1552
2023-04-26T08:16:17.830Z,82.8056
2023-04-26T08:17:18.568Z,81.6342
2023-04-26T08:18:19.292Z,81.4905
2023-04-26T08:19:20.069Z,81.6160
2023-04-26T08:20:20.769Z,82.2612
2023-04-26T08:21:21.510Z,82.3978
2023-04-26T08:22:22.254Z,81.7876
2023-04-26T08:23:22.983Z,81.2663
2023-04-26T08:24:23.884Z,81.6088
2023-04-26T08:25:24.768Z,82.0234
2023-04-26T08:26:25.494Z,82.1400
2023-04-26T08:27:26.236Z,82.3315
2023-04-26T08:28:26.925Z,82.1501
2023-04-26T08:29:27.684Z,83.3637
2023-04-26T08:30:28.411Z,83.4034
2023-04-26T08:31:29.256Z,83.0008
2023-04-26T08:32:30.066Z,82.6402
2023-04-26T08:33:30.762Z,82.6665
2023-04-26T08:34:31.505Z,82.2789
2023-04-26T08:35:32.271Z,82.4966
2023-04-26T08:36:32.962Z,82.4462
2023-04-26T08:37:33.660Z,82.1510
2023-04-26T08:38:34.426Z,81.8493
2023-04-26T08:39:35.160Z,81.6747
2023-04-26T08:40:35.885Z,81.6229
2023-04-26T08:41:36.595Z,81.7041
2023-04-26T08:42:38.002Z,82.5484
2023-04-26T08:43:38.976Z,82.1779
2023-04-26T08:44:39.674Z,81.5352
2023-04-26T08:45:40.495Z,81.4139
2023-04-26T08:46:41.226Z,81.5238
2023-04-26T08:47:42.022Z,81.3545
2023-04-26T08:48:42.727Z,81.6998
2023-04-26T08:49:43.443Z,81.8259
2023-04-26T08:50:44.109Z,82.0179
2023-04-26T08:51:44.855Z,81.6923
2023-04-26T08:52:45.632Z,81.2105
2023-04-26T08:53:46.298Z,80.4925
2023-04-26T08:54:47.036Z,80.8867
2023-04-26T08:55:47.724Z,80.6693
2023-04-26T08:56:48.415Z,81.1554
2023-04-26T08:57:49.105Z,81.1883
2023-04-26T08:58:49.790Z,80.9777
2023-04-26T08:59:50.524Z,81.3001
2023-04-26T09:00:51.383Z,80.9024
2023-04-26T09:01:52.119Z,81.6007
2023-04-26T09:02:53.197Z,81.4667
2023-04-26T09:03:54.585Z,80.8397
2023-04-26T09:04:55.973Z,80.5836
2023-04-26T09:05:56.930Z,80.2473
2023-04-26T09:06:57.652Z,79.7047
2023-04-26T09:07:58.344Z,79.5032
2023-04-26T09:08:59.036Z,78.9192
2023-04-26T09:09:59.840Z,78.6642
2023-04-26T09:11:00.531Z,78.4334
2023-04-26T09:12:01.230Z,78.9027
2023-04-26T09:13:01.957Z,79.4904
2023-04-26T09:14:02.662Z,79.2427
2023-04-26T09:15:03.372Z,78.6815
2023-04-26T09:16:05.267Z,78.1806
2023-04-26T09:17:06.323Z,77.3711
2023-04-26T09:18:07.043Z,77.0972
2023-04-26T09:19:07.769Z,76.4969
2023-04-26T09:20:08.608Z,76.8912
2023-04-26T09:21:09.305Z,76.7086
2023-04-26T09:22:10.026Z,77.3440
2023-04-26T09:23:10.736Z,77.0877
2023-04-26T09:24:11.404Z,78.0898
2023-04-26T09:25:12.103Z,78.2807
2023-04-26T09:26:12.791Z,76.8023
2023-04-26T09:27:13.509Z,76.6769
2023-04-26T09:28:14.182Z,76.3163
2023-04-26T09:29:14.970Z,76.4073
2023-04-26T09:30:15.665Z,76.9093
2023-04-26T09:31:16.399Z,76.1929
2023-04-26T09:32:17.079Z,75.7287
2023-04-26T09:33:17.897Z,75.2218
2023-04-26T09:34:18.568Z,74.6270
2023-04-26T09:35:19.278Z,74.0372
2023-04-26T09:36:19.946Z,73.4073
2023-04-26T09:37:20.627Z,72.7117
2023-04-26T09:38:21.364Z,74.7730
2023-04-26T09:39:22.031Z,74.5544
2023-04-26T09:40:22.788Z,74.7496
2023-04-26T09:41:23.518Z,75.3233
2023-04-26T09:42:24.192Z,75.4467
2023-04-26T09:43:24.826Z,75.7004
2023-04-26T09:44:25.469Z,75.0675
2023-04-26T09:45:26.119Z,74.5868
2023-04-26T09:46:26.843Z,74.6559
2023-04-26T09:47:27.474Z,73.7663
2023-04-26T09:48:28.113Z,73.9367
2023-04-26T09:49:28.766Z,74.5584
2023-04-26T09:50:29.459Z,74.2276
2023-04-26T09:51:30.145Z,74.2915
2023-04-26T09:52:30.792Z,74.0944
2023-04-26T09:53:31.434Z,74.4143
2023-04-26T09:54:32.046Z,74.0847
2023-04-26T09:55:35.468Z,73.6524
2023-04-26T09:56:33.819Z,74.3178
2023-04-26T09:57:34.472Z,72.9664
2023-04-26T09:58:35.093Z,73.4377
2023-04-26T09:59:35.725Z,73.9144
2023-04-26T10:00:36.386Z,73.3722
2023-04-26T10:01:37.088Z,73.6670
2023-04-26T10:02:37.808Z,74.7877
2023-04-26T10:03:38.798Z,74.8359
2023-04-26T10:04:39.788Z,74.7438
2023-04-26T10:05:40.455Z,74.6894
2023-04-26T10:06:41.147Z,73.8170
2023-04-26T10:07:41.875Z,72.5290
2023-04-26T10:08:42.570Z,71.5200
2023-04-26T10:09:43.208Z,71.5740
2023-04-26T10:10:43.929Z,71.3008
2023-04-26T10:11:44.576Z,72.3554
2023-04-26T10:12:45.264Z,72.2619
2023-04-26T10:13:45.991Z,71.8300
2023-04-26T10:14:46.694Z,72.0962
2023-04-26T10:15:47.406Z,71.1282
2023-04-26T10:16:48.112Z,71.2675
2023-04-26T10:17:50.239Z,72.2123
2023-04-26T10:18:50.185Z,69.8445
2023-04-26T10:19:50.939Z,71.0506
2023-04-26T10:20:51.609Z,70.1359
2023-04-26T10:21:52.289Z,69.8075
2023-04-26T10:22:52.963Z,69.1557
2023-04-26T10:23:53.700Z,69.0451
2023-04-26T10:24:54.391Z,68.5462
2023-04-26T10:25:55.082Z,68.2196
2023-04-26T10:26:55.810Z,67.6806
2023-04-26T10:27:56.525Z,66.7264
2023-04-26T10:29:02.098Z,66.1156
2023-04-26T10:29:58.330Z,67.3542
2023-04-26T10:30:58.996Z,69.6322
2023-04-26T10:31:59.653Z,71.0484
2023-04-26T10:33:00.331Z,68.1198
2023-04-26T10:34:00.948Z,66.5941
2023-04-26T10:35:01.621Z,64.9757
2023-04-26T10:36:02.260Z,64.5092
2023-04-26T10:37:02.995Z,64.2562
2023-04-26T10:38:03.638Z,63.2443
2023-04-26T10:39:04.261Z,63.3729
2023-04-26T10:40:04.863Z,62.0974
2023-04-26T10:41:05.545Z,64.0332
2023-04-26T10:42:06.171Z,63.3281
2023-04-26T10:43:06.806Z,63.5911
2023-04-26T10:44:07.421Z,63.2679
2023-04-26T10:45:08.054Z,62.3585
2023-04-26T10:46:08.695Z,61.3112
2023-04-26T10:47:09.284Z,62.1441
2023-04-26T10:48:09.964Z,64.5218
2023-04-26T10:49:10.589Z,64.2886
2023-04-26T10:50:11.215Z,64.8817
2023-04-26T10:51:11.958Z,63.3516
2023-04-26T10:52:12.554Z,62.5086
2023-04-26T10:53:13.198Z,61.6741
2023-04-26T10:54:13.836Z,61.3806
2023-04-26T10:55:14.469Z,61.3988
2023-04-26T10:56:15.083Z,61.4447
2023-04-26T10:57:15.716Z,60.1481
2023-04-26T10:58:16.323Z,60.0843
2023-04-26T10:59:36.125Z,58.7663
2023-04-26T11:00:18.001Z,59.0637
2023-04-26T11:01:18.751Z,57.9656
2023-04-26T11:02:19.408Z,57.0103
2023-04-26T11:03:20.104Z,58.1684
2023-04-26T11:04:20.897Z,56.7062
2023-04-26T11:05:23.557Z,54.9567
2023-04-26T11:06:22.670Z,55.1449
2023-04-26T11:07:23.291Z,54.6040
2023-04-26T11:08:23.934Z,52.6769
2023-04-26T11:09:24.552Z,51.8188
2023-04-26T11:10:25.219Z,51.1232
2023-04-26T11:11:25.905Z,54.1627
2023-04-26T11:12:26.586Z,56.9827
2023-04-26T11:13:27.211Z,57.6839
2023-04-26T11:14:27.872Z,56.4444
2023-04-26T11:15:28.506Z,55.1485
2023-04-26T11:16:29.302Z,54.9508
2023-04-26T11:17:30.002Z,55.3452
2023-04-26T11:18:30.629Z,52.8771
2023-04-26T11:19:31.256Z,51.7444
2023-04-26T11:20:31.830Z,51.3809
2023-04-26T11:21:32.444Z,50.6486
2023-04-26T11:22:33.023Z,50.6342
2023-04-26T11:23:33.849Z,49.2142
2023-04-26T11:24:34.448Z,50.2127
2023-04-26T11:25:35.041Z,50.1373
2023-04-26T11:26:35.652Z,50.1046
2023-04-26T11:27:36.163Z,49.5811
2023-04-26T11:28:36.737Z,50.6296
2023-04-26T11:29:37.331Z,51.6896
2023-04-26T11:30:38.506Z,50.3437
2023-04-26T11:31:39.460Z,50.2112
2023-04-26T11:32:40.120Z,52.3769
2023-04-26T11:33:40.699Z,52.3363
2023-04-26T11:34:41.297Z,52.5820
2023-04-26T11:35:41.869Z,49.7070
2023-04-26T11:36:42.473Z,48.3767
2023-04-26T11:37:43.051Z,47.9626
2023-04-26T11:38:43.694Z,46.7754
2023-04-26T11:39:44.318Z,45.4817
2023-04-26T11:40:44.867Z,46.0646
2023-04-26T11:41:45.436Z,48.5177
2023-04-26T11:42:46.029Z,48.7759
2023-04-26T11:43:46.634Z,48.6114
2023-04-26T11:44:47.879Z,50.7659
2023-04-26T11:45:48.608Z,51.4538
2023-04-26T11:46:49.291Z,52.2636
2023-04-26T11:47:49.899Z,50.4394
2023-04-26T11:48:50.425Z,49.2415
2023-04-26T11:49:51.070Z,50.0994
2023-04-26T11:50:51.614Z,49.2828
2023-04-26T11:51:52.218Z,49.4206
2023-04-26T11:52:52.773Z,48.6690
2023-04-26T11:53:53.318Z,48.6850
2023-04-26T11:54:53.869Z,48.4063
2023-04-26T11:55:54.459Z,47.4183
2023-04-26T11:56:55.050Z,48.5731
2023-04-26T11:57:55.865Z,48.6978
2023-04-26T11:58:56.834Z,48.3582
2023-04-26T11:59:57.639Z,48.0655
2023-04-26T12:00:58.213Z,48.8237
2023-04-26T12:01:58.936Z,49.0483
2023-04-26T12:02:59.715Z,48.9505
2023-04-26T12:04:00.792Z,48.3712
2023-04-26T12:05:01.822Z,48.4239
2023-04-26T12:06:02.545Z,47.6084
2023-04-26T12:07:03.113Z,46.8667
2023-04-26T12:08:03.681Z,48.4368
2023-04-26T12:09:04.258Z,52.6077
2023-04-26T12:10:04.880Z,53.1846
2023-04-26T12:11:05.497Z,51.2241
2023-04-26T12:12:06.092Z,49.4117
2023-04-26T12:13:06.695Z,47.9361
2023-04-26T12:14:07.377Z,48.0015